createdAt,value
2017-12-10T00:00:37.489Z,8.63
2017-12-10T00:03:05.215Z,13.13
2017-12-10T00:05:32.962Z,12.30
2017-12-10T00:08:00.669Z,11.10
2017-12-10T00:10:28.422Z,10.27
2017-12-10T00:12:56.131Z,11.63
2017-12-10T00:15:23.881Z,9.33
2017-12-10T00:17:51.592Z,10.33
2017-12-10T00:20:19.374Z,15.20
2017-12-10T00:22:47.064Z,12.13
2017-12-10T00:25:14.830Z,11.67
2017-12-10T00:27:42.511Z,10.07
2017-12-10T00:30:10.326Z,12.47
2017-12-10T00:32:38.009Z,14.90
2017-12-10T00:35:05.762Z,10.93
2017-12-10T00:37:33.454Z,10.73
2017-12-10T00:40:01.197Z,13.70
2017-12-10T00:42:28.903Z,11.43
2017-12-10T00:44:56.663Z,13.63
2017-12-10T00:47:24.356Z,13.47
2017-12-10T00:49:52.108Z,12.40
2017-12-10T00:52:19.839Z,19.30
2017-12-10T00:54:47.588Z,15.67
2017-12-10T00:57:15.288Z,11.77
2017-12-10T00:59:43.025Z,11.43
2017-12-10T01:02:10.733Z,15.40
2017-12-10T01:04:38.479Z,15.60
2017-12-10T01:07:06.172Z,12.60
2017-12-10T01:09:33.947Z,17.80
2017-12-10T01:12:01.633Z,20.50
2017-12-10T01:14:29.446Z,15.67
2017-12-10T01:16:57.139Z,18.43
2017-12-10T01:19:24.892Z,19.70
2017-12-10T01:21:52.601Z,13.60
2017-12-10T01:24:20.379Z,16.70
2017-12-10T01:26:48.079Z,15.77
2017-12-10T01:29:15.820Z,14.57
2017-12-10T01:31:43.504Z,18.50
2017-12-10T01:34:11.246Z,14.60
2017-12-10T01:36:38.974Z,15.67
2017-12-10T01:39:06.664Z,16.40
2017-12-10T01:41:34.429Z,15.77
2017-12-10T01:44:02.129Z,15.07
2017-12-10T01:46:29.863Z,15.90
2017-12-10T01:48:57.548Z,15.60
2017-12-10T01:51:25.342Z,16.80
2017-12-10T01:53:53.040Z,20.33
2017-12-10T01:56:20.783Z,16.33
2017-12-10T01:58:48.464Z,18.20
2017-12-10T02:01:16.209Z,17.60
2017-12-10T02:03:43.907Z,18.83
2017-12-10T02:06:11.625Z,19.30
2017-12-10T02:08:39.310Z,14.90
2017-12-10T02:11:07.063Z,17.03
2017-12-10T02:13:34.772Z,15.90
2017-12-10T02:16:02.513Z,17.67
2017-12-10T02:18:30.217Z,17.17
2017-12-10T02:20:57.945Z,20.53
2017-12-10T02:23:25.645Z,18.00
2017-12-10T02:25:53.410Z,17.07
2017-12-10T02:28:21.723Z,16.37
2017-12-10T02:30:49.475Z,15.70
2017-12-10T02:33:17.163Z,24.90
2017-12-10T02:35:44.909Z,18.20
2017-12-10T02:38:12.611Z,18.33
2017-12-10T02:40:40.355Z,17.77
2017-12-10T02:43:08.145Z,19.03
2017-12-10T02:45:35.873Z,19.10
2017-12-10T02:48:03.587Z,13.53
2017-12-10T02:50:31.325Z,15.03
2017-12-10T02:52:59.086Z,16.67
2017-12-10T02:55:26.849Z,22.27
2017-12-10T02:57:54.544Z,20.83
2017-12-10T03:00:22.292Z,15.37
2017-12-10T03:02:49.987Z,16.40
2017-12-10T03:05:17.734Z,16.40
2017-12-10T03:07:45.428Z,14.70
2017-12-10T03:10:13.208Z,16.23
2017-12-10T03:12:40.893Z,14.67
2017-12-10T03:15:08.650Z,16.67
2017-12-10T03:17:36.349Z,18.73
2017-12-10T03:20:04.098Z,18.23
2017-12-10T03:22:31.778Z,17.03
2017-12-10T03:24:59.518Z,18.73
2017-12-10T03:27:27.205Z,17.17
2017-12-10T03:29:54.956Z,15.60
2017-12-10T03:32:22.642Z,14.53
2017-12-10T03:34:50.341Z,19.80
2017-12-10T03:37:18.064Z,16.03
2017-12-10T03:39:45.757Z,15.07
2017-12-10T03:42:13.535Z,15.07
2017-12-10T03:44:41.280Z,17.57
2017-12-10T03:47:09.057Z,14.20
2017-12-10T03:49:36.741Z,17.07
2017-12-10T03:52:08.615Z,17.43
2017-12-10T03:54:36.291Z,18.40
2017-12-10T03:57:04.040Z,13.43
2017-12-10T03:59:31.740Z,13.60
2017-12-10T04:01:59.456Z,13.93
2017-12-10T04:04:27.139Z,16.77
2017-12-10T04:06:54.863Z,17.00
2017-12-10T04:09:22.551Z,17.10
2017-12-10T04:11:50.281Z,17.97
2017-12-10T04:14:17.969Z,19.20
2017-12-10T04:16:45.712Z,16.73
2017-12-10T04:19:13.440Z,14.67
2017-12-10T04:21:41.171Z,16.57
2017-12-10T04:24:08.869Z,14.57
2017-12-10T04:26:36.616Z,15.60
2017-12-10T04:29:04.315Z,14.47
2017-12-10T04:31:32.055Z,14.27
2017-12-10T04:33:59.729Z,14.50
2017-12-10T04:36:27.464Z,16.57
2017-12-10T04:38:55.167Z,17.40
2017-12-10T04:41:22.929Z,15.80
2017-12-10T04:43:50.615Z,15.73
2017-12-10T04:46:18.342Z,16.30
2017-12-10T04:48:46.075Z,17.37
2017-12-10T04:51:13.844Z,18.87
2017-12-10T04:53:41.533Z,25.00
2017-12-10T04:56:09.269Z,14.53
2017-12-10T04:58:36.947Z,15.60
2017-12-10T05:01:04.703Z,18.53
2017-12-10T05:03:32.394Z,16.50
2017-12-10T05:06:00.150Z,16.47
2017-12-10T05:08:27.838Z,21.47
2017-12-10T05:10:55.580Z,18.53
2017-12-10T05:13:23.289Z,16.60
2017-12-10T05:15:51.024Z,18.23
2017-12-10T05:18:18.725Z,17.67
2017-12-10T05:20:46.473Z,19.97
2017-12-10T05:23:14.171Z,20.20
2017-12-10T05:25:41.935Z,17.63
2017-12-10T05:28:09.668Z,21.13
2017-12-10T05:30:37.344Z,18.90
2017-12-10T05:33:05.091Z,20.53
2017-12-10T05:35:32.784Z,16.90
2017-12-10T05:38:00.451Z,20.93
2017-12-10T05:40:28.200Z,16.10
2017-12-10T05:42:55.937Z,17.10
2017-12-10T05:45:23.565Z,17.37
2017-12-10T05:47:51.301Z,17.47
2017-12-10T05:50:19.009Z,22.20
2017-12-10T05:52:46.801Z,15.67
2017-12-10T05:55:14.523Z,18.53
2017-12-10T05:57:42.272Z,15.33
2017-12-10T06:00:09.969Z,16.73
2017-12-10T06:02:37.686Z,20.40
2017-12-10T06:05:05.378Z,17.80
2017-12-10T06:07:33.135Z,20.23
2017-12-10T06:10:00.827Z,15.67
2017-12-10T06:12:28.560Z,16.03
2017-12-10T06:14:56.256Z,19.57
2017-12-10T06:17:23.994Z,15.30
2017-12-10T06:19:51.686Z,18.57
2017-12-10T06:22:19.415Z,16.20
2017-12-10T06:24:47.103Z,18.13
2017-12-10T06:27:14.837Z,20.87
2017-12-10T06:29:42.532Z,18.43
2017-12-10T06:32:10.289Z,16.33
2017-12-10T06:34:37.984Z,19.00
2017-12-10T06:37:05.722Z,16.50
2017-12-10T06:39:33.414Z,20.07
2017-12-10T06:42:01.180Z,20.10
2017-12-10T06:44:28.881Z,18.57
2017-12-10T06:46:56.625Z,17.77
2017-12-10T06:49:24.314Z,15.90
2017-12-10T06:51:51.996Z,24.37
2017-12-10T06:54:19.690Z,20.53
2017-12-10T06:56:47.433Z,21.20
2017-12-10T06:59:15.129Z,18.00
2017-12-10T07:01:42.900Z,25.27
2017-12-10T07:04:10.621Z,21.80
2017-12-10T07:06:38.356Z,19.63
2017-12-10T07:09:06.093Z,21.70
2017-12-10T07:11:33.852Z,22.93
2017-12-10T07:14:01.558Z,21.90
2017-12-10T07:16:29.276Z,21.60
2017-12-10T07:18:56.956Z,17.17
2017-12-10T07:21:24.647Z,20.07
2017-12-10T07:23:52.391Z,19.00
2017-12-10T07:26:20.081Z,19.20
2017-12-10T07:28:47.800Z,18.80
2017-12-10T07:31:15.484Z,16.77
2017-12-10T07:33:43.211Z,17.30
2017-12-10T07:36:10.922Z,15.37
2017-12-10T07:38:38.675Z,13.80
2017-12-10T07:41:06.392Z,15.20
2017-12-10T07:43:34.142Z,16.27
2017-12-10T07:46:01.835Z,16.73
2017-12-10T07:48:29.583Z,13.47
2017-12-10T07:50:57.275Z,13.83
2017-12-10T07:53:25.096Z,15.23
2017-12-10T07:55:52.791Z,12.30
2017-12-10T07:58:20.523Z,14.80
2017-12-10T08:00:48.379Z,12.20
2017-12-10T08:03:16.097Z,11.80
2017-12-10T08:05:43.806Z,11.17
2017-12-10T08:08:11.539Z,16.00
2017-12-10T08:10:39.232Z,11.43
2017-12-10T08:13:06.971Z,11.00
2017-12-10T08:15:34.661Z,11.80
2017-12-10T08:18:02.439Z,11.70
2017-12-10T08:20:30.111Z,13.57
2017-12-10T08:22:57.844Z,12.90
2017-12-10T08:25:25.542Z,9.73
2017-12-10T08:27:53.279Z,11.73
2017-12-10T08:30:20.995Z,9.93
2017-12-10T08:32:48.749Z,10.67
2017-12-10T08:35:16.468Z,8.30
2017-12-10T08:37:44.212Z,12.97
2017-12-10T08:40:11.915Z,10.00
2017-12-10T08:42:39.762Z,13.70
2017-12-10T08:45:07.460Z,11.20
2017-12-10T08:47:35.211Z,10.17
2017-12-10T08:50:02.909Z,7.47
2017-12-10T08:52:30.687Z,8.90
2017-12-10T08:54:58.373Z,11.30
2017-12-10T08:57:26.116Z,7.87
2017-12-10T08:59:53.787Z,9.40
2017-12-10T09:02:21.520Z,6.77
2017-12-10T09:04:49.231Z,10.10
2017-12-10T09:07:16.992Z,10.73
2017-12-10T09:09:44.620Z,7.60
2017-12-10T09:12:12.368Z,6.93
2017-12-10T09:14:40.099Z,10.00
2017-12-10T09:17:07.785Z,7.77
2017-12-10T09:19:35.542Z,6.33
2017-12-10T09:22:03.243Z,7.47
2017-12-10T09:24:31.013Z,7.07
2017-12-10T09:26:58.728Z,6.63
2017-12-10T09:29:26.443Z,8.77
2017-12-10T09:31:54.144Z,5.60
2017-12-10T09:34:21.884Z,8.27
2017-12-10T09:36:49.593Z,6.63
2017-12-10T09:39:17.258Z,10.60
2017-12-10T09:41:44.936Z,6.67
2017-12-10T09:44:12.667Z,7.80
2017-12-10T09:46:40.378Z,6.17
2017-12-10T09:49:08.255Z,8.63
2017-12-10T09:51:35.995Z,7.83
2017-12-10T09:54:03.725Z,7.63
2017-12-10T09:56:31.411Z,9.07
2017-12-10T09:58:59.104Z,8.50
2017-12-10T10:01:26.826Z,13.77
2017-12-10T10:03:54.560Z,15.70
2017-12-10T10:06:22.275Z,8.27
2017-12-10T10:08:50.012Z,8.20
2017-12-10T10:11:17.733Z,11.40
2017-12-10T10:13:45.543Z,9.27
2017-12-10T10:16:13.225Z,9.13
2017-12-10T10:18:40.985Z,8.00
2017-12-10T10:21:08.675Z,8.00
2017-12-10T10:23:36.421Z,6.37
2017-12-10T10:26:04.121Z,8.20
2017-12-10T10:28:31.864Z,7.50
2017-12-10T10:30:59.574Z,5.57
2017-12-10T10:33:27.319Z,11.00
2017-12-10T10:35:54.995Z,5.67
2017-12-10T10:38:22.724Z,5.80
2017-12-10T10:40:50.444Z,4.90
2017-12-10T10:43:18.184Z,5.93
2017-12-10T10:45:46.246Z,5.90
2017-12-10T10:48:13.994Z,6.47
2017-12-10T10:50:41.712Z,4.93
2017-12-10T10:53:09.502Z,5.73
2017-12-10T10:55:37.192Z,4.73
2017-12-10T10:58:04.926Z,3.60
2017-12-10T11:00:32.632Z,4.40
2017-12-10T11:03:00.375Z,5.40
2017-12-10T11:05:28.070Z,5.47
2017-12-10T11:07:55.757Z,3.43
2017-12-10T11:10:23.496Z,7.80
2017-12-10T11:12:51.214Z,5.27
2017-12-10T11:15:18.951Z,5.07
2017-12-10T11:17:46.646Z,5.77
2017-12-10T11:20:14.400Z,5.37
2017-12-10T11:22:42.092Z,6.63
2017-12-10T11:25:09.849Z,6.97
2017-12-10T11:27:37.527Z,5.83
2017-12-10T11:30:05.284Z,5.47
2017-12-10T11:32:32.965Z,5.30
2017-12-10T11:35:00.689Z,6.40
2017-12-10T11:37:28.382Z,4.03
2017-12-10T11:39:56.101Z,3.63
2017-12-10T11:42:23.933Z,5.37
2017-12-10T11:44:51.701Z,4.53
2017-12-10T11:47:19.377Z,5.33
2017-12-10T11:49:47.108Z,4.60
2017-12-10T11:52:14.832Z,3.90
2017-12-10T11:54:42.560Z,6.50
2017-12-10T11:57:10.237Z,4.53
2017-12-10T11:59:37.963Z,6.30
2017-12-10T12:02:05.661Z,9.53
2017-12-10T12:04:33.420Z,4.57
2017-12-10T12:07:01.128Z,5.40
2017-12-10T12:09:28.802Z,9.03
2017-12-10T12:11:56.473Z,4.33
2017-12-10T12:14:24.211Z,6.10
2017-12-10T12:16:51.890Z,8.27
2017-12-10T12:19:19.608Z,3.90
2017-12-10T12:21:47.300Z,7.27
2017-12-10T12:24:15.052Z,5.30
2017-12-10T12:26:42.754Z,3.53
2017-12-10T12:29:10.449Z,8.03
2017-12-10T12:31:38.167Z,7.73
2017-12-10T12:34:05.844Z,4.03
2017-12-10T12:36:33.541Z,12.70
2017-12-10T12:39:01.289Z,5.97
2017-12-10T12:41:28.995Z,5.17
2017-12-10T12:43:56.744Z,6.30
2017-12-10T12:46:24.677Z,8.50
2017-12-10T12:48:52.430Z,7.13
2017-12-10T12:51:20.175Z,5.60
2017-12-10T12:53:47.959Z,6.67
2017-12-10T12:56:15.647Z,9.00
2017-12-10T12:58:43.346Z,6.00
2017-12-10T13:01:11.141Z,5.73
2017-12-10T13:03:38.832Z,7.83
2017-12-10T13:06:06.617Z,7.30
2017-12-10T13:08:34.307Z,6.60
2017-12-10T13:11:02.097Z,8.70
2017-12-10T13:13:29.821Z,5.40
2017-12-10T13:15:57.556Z,11.83
2017-12-10T13:18:25.256Z,5.60
2017-12-10T13:20:53.018Z,8.30
2017-12-10T13:23:20.741Z,6.80
2017-12-10T13:25:48.493Z,7.73
2017-12-10T13:28:16.219Z,5.87
2017-12-10T13:30:43.946Z,5.87
2017-12-10T13:33:11.627Z,5.10
2017-12-10T13:35:39.380Z,8.03
2017-12-10T13:38:07.095Z,6.57
2017-12-10T13:40:34.834Z,3.50
2017-12-10T13:43:02.637Z,6.17
2017-12-10T13:45:30.400Z,5.17
2017-12-10T13:47:58.101Z,4.77
2017-12-10T13:50:25.907Z,6.70
2017-12-10T13:52:53.671Z,4.73
2017-12-10T13:55:21.396Z,6.53
2017-12-10T13:57:49.196Z,3.53
2017-12-10T14:00:16.953Z,6.63
2017-12-10T14:02:44.637Z,6.40
2017-12-10T14:05:13.322Z,7.20
2017-12-10T14:07:41.098Z,6.00
2017-12-10T14:10:08.877Z,5.60
2017-12-10T14:12:36.913Z,7.00
2017-12-10T14:15:04.582Z,5.87
2017-12-10T14:17:32.271Z,4.97
2017-12-10T14:20:00.049Z,4.50
2017-12-10T14:22:27.744Z,5.70
2017-12-10T14:24:55.482Z,7.50
2017-12-10T14:27:23.394Z,5.63
2017-12-10T14:29:51.213Z,4.07
2017-12-10T14:32:18.987Z,4.77
2017-12-10T14:34:46.747Z,3.70
2017-12-10T14:37:14.494Z,3.73
2017-12-10T14:39:42.302Z,6.33
2017-12-10T14:42:09.952Z,4.67
2017-12-10T14:44:37.705Z,4.80
2017-12-10T14:47:05.408Z,2.93
2017-12-10T14:49:33.122Z,3.13
2017-12-10T14:52:00.924Z,4.07
2017-12-10T14:54:28.637Z,8.43
2017-12-10T14:56:56.398Z,3.97
2017-12-10T14:59:24.095Z,3.73
2017-12-10T15:01:51.828Z,4.67
2017-12-10T15:04:19.522Z,5.10
2017-12-10T15:06:47.256Z,4.93
2017-12-10T15:09:14.890Z,5.80
2017-12-10T15:11:42.617Z,4.53
2017-12-10T15:14:10.310Z,3.87
2017-12-10T15:16:38.043Z,3.20
2017-12-10T15:19:05.669Z,6.07
2017-12-10T15:21:33.410Z,5.73
2017-12-10T15:24:01.110Z,5.93
2017-12-10T15:26:28.840Z,5.40
2017-12-10T15:28:56.572Z,4.33
2017-12-10T15:31:24.316Z,3.80
2017-12-10T15:33:52.006Z,4.40
2017-12-10T15:36:19.757Z,4.70
2017-12-10T15:38:47.445Z,6.20
2017-12-10T15:41:15.212Z,5.90
2017-12-10T15:43:42.909Z,5.50
2017-12-10T15:46:10.656Z,7.40
2017-12-10T15:48:38.411Z,4.93
2017-12-10T15:51:06.239Z,7.70
2017-12-10T15:53:33.984Z,7.57
2017-12-10T15:56:01.722Z,7.10
2017-12-10T15:58:29.444Z,7.93
2017-12-10T16:00:57.184Z,8.00
2017-12-10T16:03:24.882Z,6.47
2017-12-10T16:05:52.667Z,6.40
2017-12-10T16:08:20.349Z,3.07
2017-12-10T16:10:48.079Z,5.90
2017-12-10T16:13:15.781Z,8.80
2017-12-10T16:15:43.529Z,3.37
2017-12-10T16:18:11.235Z,6.63
2017-12-10T16:20:38.973Z,4.57
2017-12-10T16:23:06.684Z,10.63
2017-12-10T16:25:34.423Z,8.63
2017-12-10T16:28:02.123Z,3.93
2017-12-10T16:30:29.858Z,7.53
2017-12-10T16:32:57.550Z,4.23
2017-12-10T16:35:25.239Z,5.70
2017-12-10T16:37:52.981Z,8.70
2017-12-10T16:40:20.666Z,12.00
2017-12-10T16:42:48.412Z,4.07
2017-12-10T16:45:16.102Z,4.10
2017-12-10T16:47:43.844Z,6.50
2017-12-10T16:50:11.556Z,6.30
2017-12-10T16:52:39.352Z,7.07
2017-12-10T16:55:07.066Z,10.40
2017-12-10T16:57:34.804Z,4.50
2017-12-10T17:00:02.487Z,6.40
2017-12-10T17:02:30.225Z,5.90
2017-12-10T17:04:57.926Z,14.30
2017-12-10T17:07:25.644Z,3.80
2017-12-10T17:09:53.351Z,5.60
2017-12-10T17:12:21.086Z,5.40
2017-12-10T17:14:48.820Z,5.17
2017-12-10T17:17:16.586Z,10.10
2017-12-10T17:19:45.295Z,6.93
2017-12-10T17:22:13.035Z,3.20
2017-12-10T17:24:40.756Z,7.20
2017-12-10T17:27:08.511Z,7.63
2017-12-10T17:29:36.214Z,5.60
2017-12-10T17:32:03.957Z,4.77
2017-12-10T17:34:31.659Z,5.33
2017-12-10T17:36:59.418Z,3.17
2017-12-10T17:39:27.121Z,5.80
2017-12-10T17:41:54.857Z,4.70
2017-12-10T17:44:22.574Z,3.47
2017-12-10T17:46:50.302Z,5.10
2017-12-10T17:49:18.004Z,5.67
2017-12-10T17:51:45.835Z,4.27
2017-12-10T17:54:13.532Z,2.47
2017-12-10T17:56:41.272Z,6.53
2017-12-10T17:59:08.982Z,6.77
2017-12-10T18:01:36.725Z,5.80
2017-12-10T18:04:04.416Z,6.70
2017-12-10T18:06:32.162Z,4.67
2017-12-10T18:08:59.869Z,4.37
2017-12-10T18:11:27.596Z,4.57
2017-12-10T18:13:55.293Z,11.40
2017-12-10T18:16:23.028Z,3.30
2017-12-10T18:18:50.724Z,6.43
2017-12-10T18:21:18.463Z,6.77
2017-12-10T18:23:46.148Z,4.43
2017-12-10T18:26:13.892Z,6.87
2017-12-10T18:28:41.629Z,5.60
2017-12-10T18:31:09.313Z,7.00
2017-12-10T18:33:37.060Z,8.80
2017-12-10T18:36:04.767Z,6.87
2017-12-10T18:38:32.545Z,6.83
2017-12-10T18:41:00.236Z,6.10
2017-12-10T18:43:28.022Z,4.00
2017-12-10T18:45:55.725Z,6.47
2017-12-10T18:48:23.498Z,4.90
2017-12-10T18:50:51.196Z,8.10
2017-12-10T18:53:18.868Z,4.50
2017-12-10T18:55:46.557Z,5.30
2017-12-10T18:58:14.280Z,9.13
2017-12-10T19:00:41.974Z,6.83
2017-12-10T19:03:09.715Z,8.37
2017-12-10T19:05:37.407Z,6.47
2017-12-10T19:08:05.095Z,6.27
2017-12-10T19:10:32.816Z,10.83
2017-12-10T19:13:00.565Z,4.23
2017-12-10T19:15:28.283Z,10.30
2017-12-10T19:17:56.028Z,13.03
2017-12-10T19:20:23.733Z,11.00
2017-12-10T19:22:51.464Z,6.60
2017-12-10T19:25:19.154Z,6.40
2017-12-10T19:27:46.888Z,6.10
2017-12-10T19:30:15.507Z,8.40
2017-12-10T19:32:43.257Z,5.90
2017-12-10T19:35:10.938Z,6.80
2017-12-10T19:37:38.713Z,8.10
2017-12-10T19:40:06.409Z,9.60
2017-12-10T19:42:34.155Z,6.80
2017-12-10T19:45:01.857Z,5.80
2017-12-10T19:47:29.618Z,5.97
2017-12-10T19:49:57.338Z,6.73
2017-12-10T19:52:25.120Z,6.03
2017-12-10T19:54:52.816Z,8.70
2017-12-10T19:57:20.560Z,6.17
2017-12-10T19:59:48.264Z,8.77
2017-12-10T20:02:15.998Z,14.40
2017-12-10T20:04:43.723Z,6.90
2017-12-10T20:07:11.466Z,11.43
2017-12-10T20:09:39.161Z,5.33
2017-12-10T20:12:06.896Z,10.97
2017-12-10T20:14:34.631Z,6.17
2017-12-10T20:17:02.353Z,10.47
2017-12-10T20:19:30.081Z,11.30
2017-12-10T20:21:57.776Z,10.40
2017-12-10T20:24:25.497Z,6.77
2017-12-10T20:26:53.191Z,8.40
2017-12-10T20:29:20.936Z,8.13
2017-12-10T20:31:48.640Z,11.87
2017-12-10T20:34:16.404Z,8.90
2017-12-10T20:36:44.123Z,10.40
2017-12-10T20:39:11.871Z,8.60
2017-12-10T20:41:39.584Z,7.70
2017-12-10T20:44:07.349Z,5.97
2017-12-10T20:46:35.045Z,9.20
2017-12-10T20:49:02.793Z,10.50
2017-12-10T20:51:30.589Z,7.60
2017-12-10T20:53:58.408Z,9.30
2017-12-10T20:56:26.085Z,11.80
2017-12-10T20:58:53.832Z,7.70
2017-12-10T21:01:21.578Z,9.00
2017-12-10T21:03:49.360Z,9.47
2017-12-10T21:06:17.048Z,7.33
2017-12-10T21:08:44.796Z,10.23
2017-12-10T21:11:12.509Z,5.80
2017-12-10T21:13:40.331Z,11.87
2017-12-10T21:16:08.019Z,5.27
2017-12-10T21:18:35.761Z,7.37
2017-12-10T21:21:03.446Z,7.53
2017-12-10T21:23:31.192Z,7.87
2017-12-10T21:25:58.896Z,5.03
2017-12-10T21:28:26.650Z,5.50
2017-12-10T21:30:54.365Z,4.87
2017-12-10T21:33:22.131Z,5.90
2017-12-10T21:35:49.848Z,5.33
2017-12-10T21:38:17.601Z,5.60
2017-12-10T21:40:45.296Z,4.40
2017-12-10T21:43:13.044Z,7.60
2017-12-10T21:45:40.742Z,4.10
2017-12-10T21:48:08.415Z,4.20
2017-12-10T21:50:36.112Z,5.17
2017-12-10T21:53:03.819Z,6.10
2017-12-10T21:55:31.518Z,4.53
2017-12-10T21:57:59.284Z,3.43
2017-12-10T22:00:26.972Z,5.27
2017-12-10T22:02:54.697Z,2.70
2017-12-10T22:05:22.402Z,2.67
2017-12-10T22:07:50.065Z,3.23
2017-12-10T22:10:17.776Z,3.33
2017-12-10T22:12:45.538Z,4.17
2017-12-10T22:15:13.248Z,5.87
2017-12-10T22:17:40.929Z,2.50
2017-12-10T22:20:08.663Z,4.43
2017-12-10T22:22:36.364Z,6.07
2017-12-10T22:25:04.108Z,4.10
2017-12-10T22:27:31.792Z,2.47
2017-12-10T22:29:59.488Z,3.53
2017-12-10T22:32:27.202Z,5.57
2017-12-10T22:34:54.945Z,7.17
2017-12-10T22:37:22.650Z,3.23
2017-12-10T22:39:50.390Z,2.70
2017-12-10T22:42:18.072Z,5.00
2017-12-10T22:44:45.820Z,4.40
2017-12-10T22:47:13.528Z,3.97
2017-12-10T22:49:41.248Z,4.30
2017-12-10T22:52:08.996Z,2.90
2017-12-10T22:54:36.719Z,4.50
2017-12-10T22:57:04.417Z,2.10
2017-12-10T22:59:32.141Z,4.23
2017-12-10T23:01:59.837Z,1.50
2017-12-10T23:04:27.581Z,3.20
2017-12-10T23:06:55.278Z,6.63
2017-12-10T23:09:23.021Z,6.70
2017-12-10T23:11:50.709Z,2.50
2017-12-10T23:14:18.450Z,2.20
2017-12-10T23:16:46.131Z,1.97
2017-12-10T23:19:13.863Z,4.70
2017-12-10T23:21:41.555Z,4.93
2017-12-10T23:24:09.299Z,4.53
2017-12-10T23:26:36.999Z,1.93
2017-12-10T23:29:04.742Z,4.60
2017-12-10T23:31:32.445Z,3.93
2017-12-10T23:34:00.192Z,4.67
2017-12-10T23:36:27.912Z,4.30
2017-12-10T23:38:55.647Z,3.57
2017-12-10T23:41:23.329Z,4.40
2017-12-10T23:43:51.049Z,5.83
2017-12-10T23:46:18.678Z,4.50
2017-12-10T23:48:46.412Z,4.97
2017-12-10T23:51:14.101Z,4.30
2017-12-10T23:53:41.879Z,4.00
2017-12-10T23:56:09.581Z,6.77
2017-12-10T23:58:37.317Z,5.87
